createdAt,value
2024-02-26T00:00:42.137Z,3.63
2024-02-26T00:03:09.049Z,3.28
2024-02-26T00:05:36.171Z,14.85
2024-02-26T00:08:05.600Z,4.07
2024-02-26T00:10:32.803Z,5.07
2024-02-26T00:12:59.512Z,2.92
2024-02-26T00:15:26.334Z,1.75
2024-02-26T00:17:53.279Z,1.90
2024-02-26T00:20:20.180Z,3.85
2024-02-26T00:22:47.094Z,2.58
2024-02-26T00:25:14.014Z,1.17
2024-02-26T00:27:42.796Z,5.07
2024-02-26T00:30:10.366Z,6.25
2024-02-26T00:32:37.318Z,4.32
2024-02-26T00:35:04.291Z,1.63
2024-02-26T00:37:31.058Z,2.75
2024-02-26T00:39:57.820Z,2.63
2024-02-26T00:42:24.652Z,2.13
2024-02-26T00:44:51.412Z,2.67
2024-02-26T00:47:18.188Z,2.63
2024-02-26T00:49:45.051Z,5.75
2024-02-26T00:52:11.928Z,1.98
2024-02-26T00:54:38.608Z,1.90
2024-02-26T00:57:05.328Z,4.55
2024-02-26T00:59:32.047Z,3.35
2024-02-26T01:01:59.926Z,3.83
2024-02-26T01:04:26.653Z,1.10
2024-02-26T01:06:53.519Z,3.28
2024-02-26T01:09:20.442Z,5.47
2024-02-26T01:11:48.233Z,3.70
2024-02-26T01:14:15.947Z,3.22
2024-02-26T01:16:42.665Z,2.92
2024-02-26T01:19:09.623Z,4.47
2024-02-26T01:21:36.627Z,2.10
2024-02-26T01:24:03.416Z,2.92
2024-02-26T01:26:30.170Z,2.10
2024-02-26T01:28:56.925Z,2.45
2024-02-26T01:31:23.696Z,9.60
2024-02-26T01:33:50.773Z,2.08
2024-02-26T01:36:17.744Z,3.17
2024-02-26T01:38:44.626Z,2.80
2024-02-26T01:41:11.610Z,3.90
2024-02-26T01:43:38.278Z,2.25
2024-02-26T01:46:05.621Z,3.92
2024-02-26T01:48:32.687Z,2.20
2024-02-26T01:50:59.788Z,3.30
2024-02-26T01:53:26.583Z,1.38
2024-02-26T01:55:53.373Z,2.88
2024-02-26T01:58:20.291Z,3.33
2024-02-26T02:00:47.636Z,3.45
2024-02-26T02:03:14.449Z,4.43
2024-02-26T02:05:43.496Z,3.25
2024-02-26T02:08:15.396Z,4.30
2024-02-26T02:10:45.012Z,2.60
2024-02-26T02:13:11.771Z,5.28
2024-02-26T02:15:38.499Z,2.50
2024-02-26T02:18:05.702Z,2.08
2024-02-26T02:20:35.899Z,6.50
2024-02-26T02:23:03.751Z,1.65
2024-02-26T02:25:30.526Z,4.70
2024-02-26T02:27:58.054Z,1.50
2024-02-26T02:30:28.017Z,3.20
2024-02-26T02:32:54.943Z,3.45
2024-02-26T02:35:21.675Z,3.67
2024-02-26T02:37:48.730Z,2.63
2024-02-26T02:40:15.592Z,1.80
2024-02-26T02:42:42.312Z,2.38
2024-02-26T02:45:09.496Z,6.43
2024-02-26T02:47:39.170Z,2.33
2024-02-26T02:50:06.615Z,1.90
2024-02-26T02:52:33.344Z,6.35
2024-02-26T02:55:00.186Z,3.15
2024-02-26T02:57:26.979Z,5.00
2024-02-26T02:59:53.716Z,1.70
2024-02-26T03:02:20.469Z,2.92
2024-02-26T03:04:47.707Z,7.32
2024-02-26T03:07:14.557Z,3.40
2024-02-26T03:09:42.241Z,1.92
2024-02-26T03:12:09.304Z,2.83
2024-02-26T03:14:36.037Z,1.23
2024-02-26T03:17:02.783Z,1.65
2024-02-26T03:19:29.502Z,1.70
2024-02-26T03:21:56.231Z,4.20
2024-02-26T03:24:23.087Z,4.13
2024-02-26T03:26:49.847Z,1.95
2024-02-26T03:29:16.560Z,1.52
2024-02-26T03:31:43.267Z,0.95
2024-02-26T03:34:10.302Z,3.85
2024-02-26T03:36:37.137Z,2.10
2024-02-26T03:39:08.731Z,3.58
2024-02-26T03:41:36.242Z,1.70
2024-02-26T03:44:03.388Z,1.92
2024-02-26T03:46:30.194Z,2.90
2024-02-26T03:48:57.080Z,1.17
2024-02-26T03:51:24.146Z,3.60
2024-02-26T03:53:51.113Z,3.45
2024-02-26T03:56:17.858Z,1.98
2024-02-26T03:58:44.760Z,2.80
2024-02-26T04:01:11.588Z,5.50
2024-02-26T04:03:38.369Z,4.13
2024-02-26T04:06:05.602Z,1.77
2024-02-26T04:08:32.497Z,1.17
2024-02-26T04:10:59.226Z,1.50
2024-02-26T04:13:27.209Z,3.00
2024-02-26T04:15:54.001Z,1.75
2024-02-26T04:18:20.819Z,2.63
2024-02-26T04:20:47.586Z,1.20
2024-02-26T04:23:14.266Z,1.92
2024-02-26T04:25:41.026Z,2.15
2024-02-26T04:28:07.720Z,2.13
2024-02-26T04:30:34.515Z,2.58
2024-02-26T04:33:01.346Z,2.65
2024-02-26T04:35:28.136Z,2.85
2024-02-26T04:37:54.896Z,1.42
2024-02-26T04:40:21.613Z,1.88
2024-02-26T04:42:51.030Z,1.08
2024-02-26T04:45:17.703Z,2.30
2024-02-26T04:47:44.659Z,2.55
2024-02-26T04:50:11.606Z,1.60
2024-02-26T04:52:38.517Z,1.33
2024-02-26T04:55:05.434Z,4.20
2024-02-26T04:57:32.153Z,1.55
2024-02-26T04:59:58.896Z,2.22
2024-02-26T05:02:25.730Z,8.88
2024-02-26T05:04:52.464Z,2.25
2024-02-26T05:07:19.317Z,1.95
2024-02-26T05:09:46.097Z,2.65
2024-02-26T05:12:12.947Z,2.45
2024-02-26T05:14:40.593Z,1.25
2024-02-26T05:19:34.018Z,1.80
2024-02-26T05:22:00.803Z,2.22
2024-02-26T05:24:27.558Z,2.90
2024-02-26T05:26:56.083Z,1.00
2024-02-26T05:29:22.775Z,2.33
2024-02-26T05:31:49.450Z,0.70
2024-02-26T05:34:16.236Z,1.50
2024-02-26T05:36:42.951Z,0.95
2024-02-26T05:39:15.760Z,4.03
2024-02-26T05:41:44.592Z,4.25
2024-02-26T05:44:12.797Z,6.20
2024-02-26T05:46:39.584Z,3.13
2024-02-26T05:49:06.329Z,1.80
2024-02-26T05:51:33.149Z,2.42
2024-02-26T05:53:59.988Z,2.08
2024-02-26T05:56:26.701Z,1.73
2024-02-26T05:58:54.094Z,5.50
2024-02-26T06:01:22.170Z,2.63
2024-02-26T06:03:49.052Z,3.42
2024-02-26T06:06:16.742Z,2.03
2024-02-26T06:08:43.818Z,3.60
2024-02-26T06:11:10.702Z,3.47
2024-02-26T06:13:37.788Z,2.50
2024-02-26T06:16:04.865Z,2.00
2024-02-26T06:18:31.947Z,1.63
2024-02-26T06:20:58.893Z,2.55
2024-02-26T06:23:25.674Z,4.63
2024-02-26T06:25:52.443Z,5.22
2024-02-26T06:28:19.460Z,4.03
2024-02-26T06:30:47.408Z,1.05
2024-02-26T06:33:15.587Z,3.72
2024-02-26T06:35:43.198Z,1.42
2024-02-26T06:40:37.520Z,1.80
2024-02-26T06:43:04.639Z,0.93
2024-02-26T06:45:31.554Z,5.22
2024-02-26T06:47:58.477Z,2.13
2024-02-26T06:50:25.275Z,1.73
2024-02-26T06:52:51.977Z,4.10
2024-02-26T06:55:18.671Z,1.42
2024-02-26T06:57:45.405Z,2.00
2024-02-26T07:00:16.078Z,1.48
2024-02-26T07:02:43.458Z,3.80
2024-02-26T07:05:10.580Z,2.20
2024-02-26T07:07:37.405Z,6.28
2024-02-26T07:10:04.914Z,2.97
2024-02-26T07:14:59.580Z,2.17
2024-02-26T07:17:26.439Z,2.15
2024-02-26T07:19:53.197Z,2.58
2024-02-26T07:22:20.116Z,1.25
2024-02-26T07:24:46.934Z,1.95
2024-02-26T07:27:13.665Z,3.67
2024-02-26T07:29:40.473Z,2.67
2024-02-26T07:32:07.445Z,3.95
2024-02-26T07:34:34.323Z,1.98
2024-02-26T07:37:01.141Z,1.83
2024-02-26T07:39:27.869Z,4.60
2024-02-26T07:41:54.946Z,2.45
2024-02-26T07:44:21.885Z,2.05
2024-02-26T07:46:48.649Z,3.03
2024-02-26T07:49:15.719Z,4.13
2024-02-26T07:51:42.796Z,1.98
2024-02-26T07:54:09.675Z,5.35
2024-02-26T07:56:36.479Z,4.10
2024-02-26T07:59:03.311Z,4.22
2024-02-26T08:01:30.078Z,3.67
2024-02-26T08:03:57.298Z,5.00
2024-02-26T08:06:25.751Z,4.35
2024-02-26T08:08:52.768Z,3.53
2024-02-26T08:11:19.753Z,3.25
2024-02-26T08:13:46.528Z,5.30
2024-02-26T08:16:13.588Z,4.78
2024-02-26T08:18:41.245Z,3.03
2024-02-26T08:21:08.375Z,4.63
2024-02-26T08:23:35.133Z,3.35
2024-02-26T08:26:01.932Z,3.42
2024-02-26T08:28:28.638Z,3.63
2024-02-26T08:30:55.349Z,6.40
2024-02-26T08:33:22.229Z,3.40
2024-02-26T08:35:49.099Z,4.80
2024-02-26T08:38:15.872Z,4.45
2024-02-26T08:40:43.023Z,6.55
2024-02-26T08:43:10.921Z,7.45
2024-02-26T08:45:38.444Z,5.20
2024-02-26T08:48:05.586Z,4.03
2024-02-26T08:50:32.409Z,5.10
2024-02-26T08:52:59.153Z,8.40
2024-02-26T08:55:25.825Z,5.68
2024-02-26T08:57:52.887Z,4.57
2024-02-26T09:00:21.818Z,3.97
2024-02-26T09:02:50.020Z,6.55
2024-02-26T09:05:17.070Z,4.28
2024-02-26T09:07:43.877Z,5.47
2024-02-26T09:10:11.715Z,5.10
2024-02-26T09:12:40.909Z,6.53
2024-02-26T09:15:08.918Z,5.32
2024-02-26T09:17:35.906Z,5.32
2024-02-26T09:20:04.137Z,4.57
2024-02-26T09:22:30.931Z,5.35
2024-02-26T09:24:57.706Z,5.43
2024-02-26T09:27:24.969Z,5.43
2024-02-26T09:29:51.825Z,5.50
2024-02-26T09:32:19.100Z,5.25
2024-02-26T09:34:45.973Z,3.70
2024-02-26T09:37:21.192Z,3.85
2024-02-26T09:39:49.312Z,4.88
2024-02-26T09:42:20.451Z,6.07
2024-02-26T09:44:52.337Z,5.28
2024-02-26T09:47:21.221Z,8.40
2024-02-26T09:49:49.878Z,4.05
2024-02-26T09:52:18.001Z,5.10
2024-02-26T09:54:48.712Z,6.60
2024-02-26T09:57:18.575Z,5.82
2024-02-26T09:59:47.617Z,5.65
2024-02-26T10:02:15.635Z,7.60
2024-02-26T10:04:46.782Z,7.72
2024-02-26T10:07:16.583Z,12.82
2024-02-26T10:09:43.351Z,9.30
2024-02-26T10:12:12.978Z,9.40
2024-02-26T10:14:40.018Z,9.15
2024-02-26T10:17:11.912Z,9.90
2024-02-26T10:19:39.592Z,11.95
2024-02-26T10:22:07.176Z,10.32
2024-02-26T10:24:35.985Z,11.93
2024-02-26T10:27:03.780Z,9.70
2024-02-26T10:29:30.934Z,10.73
2024-02-26T10:31:57.781Z,10.32
2024-02-26T10:34:25.024Z,14.70
2024-02-26T10:36:54.090Z,11.18
2024-02-26T10:39:22.331Z,14.68
2024-02-26T10:41:49.483Z,11.65
2024-02-26T10:44:18.737Z,14.98
2024-02-26T10:46:48.645Z,10.43
2024-02-26T10:49:19.474Z,10.70
2024-02-26T10:51:51.275Z,11.15
2024-02-26T10:54:18.098Z,8.38
2024-02-26T10:56:47.564Z,9.23
2024-02-26T10:59:21.874Z,8.93
2024-02-26T11:01:52.115Z,10.30
2024-02-26T11:04:20.082Z,8.38
2024-02-26T11:06:48.907Z,9.32
2024-02-26T11:09:20.689Z,9.23
2024-02-26T11:11:48.550Z,11.20
2024-02-26T11:14:15.756Z,12.38
2024-02-26T11:16:44.340Z,10.50
2024-02-26T11:19:13.969Z,12.77
2024-02-26T11:21:42.964Z,10.23
2024-02-26T11:24:13.671Z,9.85
2024-02-26T11:26:49.332Z,12.65
2024-02-26T11:29:21.867Z,7.97
2024-02-26T11:31:49.372Z,8.88
2024-02-26T11:34:16.358Z,7.63
2024-02-26T11:39:13.875Z,12.65
2024-02-26T11:41:40.720Z,11.73
2024-02-26T11:44:08.437Z,11.57
2024-02-26T11:46:41.290Z,8.48
2024-02-26T11:49:29.841Z,9.75
2024-02-26T11:51:57.808Z,11.18
2024-02-26T11:54:58.355Z,10.77
2024-02-26T11:57:37.649Z,8.48
2024-02-26T12:00:07.156Z,9.70
2024-02-26T12:02:46.595Z,10.40
2024-02-26T12:05:13.515Z,9.18
2024-02-26T12:07:54.097Z,9.23
2024-02-26T12:10:35.461Z,8.10
2024-02-26T12:13:08.855Z,7.47
2024-02-26T12:18:08.950Z,8.82
2024-02-26T12:20:36.421Z,12.57
2024-02-26T12:23:05.485Z,6.72
2024-02-26T12:25:33.920Z,4.47
2024-02-26T12:28:01.413Z,7.68
2024-02-26T12:30:30.727Z,7.45
2024-02-26T12:32:58.648Z,6.65
2024-02-26T12:35:26.130Z,11.82
2024-02-26T12:37:54.806Z,12.18
2024-02-26T12:40:22.068Z,7.72
2024-02-26T12:42:49.565Z,5.22
2024-02-26T12:45:17.787Z,5.38
2024-02-26T12:47:46.981Z,9.88
2024-02-26T12:50:14.187Z,8.23
2024-02-26T12:55:12.234Z,6.63
2024-02-26T12:57:40.049Z,6.70
2024-02-26T13:00:10.727Z,6.10
2024-02-26T13:02:38.777Z,4.78
2024-02-26T13:05:08.690Z,7.20
2024-02-26T13:07:41.586Z,7.00
2024-02-26T13:10:09.173Z,4.00
2024-02-26T13:12:35.947Z,4.20
2024-02-26T13:15:04.253Z,4.10
2024-02-26T13:17:34.395Z,5.47
2024-02-26T13:20:01.392Z,5.43
2024-02-26T13:24:56.315Z,6.28
2024-02-26T13:27:25.978Z,7.15
2024-02-26T13:30:12.467Z,7.97
2024-02-26T13:32:41.009Z,7.95
2024-02-26T13:35:12.743Z,5.22
2024-02-26T13:37:40.590Z,7.05
2024-02-26T13:40:11.656Z,7.75
2024-02-26T13:42:39.639Z,4.70
2024-02-26T13:45:10.167Z,4.90
2024-02-26T13:47:37.342Z,6.47
2024-02-26T13:52:33.970Z,8.88
2024-02-26T13:55:00.934Z,3.15
2024-02-26T13:57:28.350Z,5.07
2024-02-26T13:59:55.490Z,5.60
2024-02-26T14:02:22.487Z,6.32
2024-02-26T14:07:18.482Z,5.32
2024-02-26T14:09:50.319Z,4.72
2024-02-26T14:12:20.097Z,4.72
2024-02-26T14:14:50.173Z,2.60
2024-02-26T14:17:17.144Z,3.28
2024-02-26T14:19:48.822Z,2.70
2024-02-26T14:22:18.635Z,4.03
2024-02-26T14:24:45.416Z,5.30
2024-02-26T14:27:18.487Z,2.97
2024-02-26T14:29:45.366Z,7.85
2024-02-26T14:32:12.089Z,3.58
2024-02-26T14:34:39.046Z,3.90
2024-02-26T14:39:33.806Z,4.20
2024-02-26T14:42:01.398Z,3.88
2024-02-26T14:44:28.214Z,2.13
2024-02-26T14:46:54.897Z,5.47
2024-02-26T14:49:21.725Z,2.47
2024-02-26T14:51:48.619Z,4.47
2024-02-26T14:54:15.653Z,2.83
2024-02-26T14:59:08.991Z,3.58
2024-02-26T15:01:35.778Z,4.38
2024-02-26T15:04:02.769Z,2.35
2024-02-26T15:08:57.298Z,2.75
2024-02-26T15:11:24.243Z,1.65
2024-02-26T15:13:50.993Z,2.70
2024-02-26T15:16:22.028Z,3.65
2024-02-26T15:18:49.146Z,3.00
2024-02-26T15:21:16.198Z,4.68
2024-02-26T15:23:59.155Z,4.03
2024-02-26T15:26:31.885Z,2.10
2024-02-26T15:28:58.625Z,3.90
2024-02-26T15:31:25.340Z,1.52
2024-02-26T15:33:52.245Z,3.15
2024-02-26T15:36:19.228Z,1.27
2024-02-26T15:38:45.895Z,2.17
2024-02-26T15:41:16.008Z,2.10
2024-02-26T15:43:42.756Z,3.58
2024-02-26T15:46:09.636Z,4.22
2024-02-26T15:48:39.656Z,3.65
2024-02-26T15:51:06.821Z,3.22
2024-02-26T15:56:00.787Z,4.20
2024-02-26T15:58:27.625Z,2.67
2024-02-26T16:00:54.388Z,4.55
2024-02-26T16:03:21.177Z,5.03
2024-02-26T16:05:48.173Z,4.28
2024-02-26T16:10:49.492Z,2.08
2024-02-26T16:13:20.646Z,2.20
2024-02-26T16:16:08.988Z,4.95
2024-02-26T16:18:36.835Z,2.45
2024-02-26T16:21:03.811Z,4.20
2024-02-26T16:23:30.545Z,3.63
2024-02-26T16:25:57.374Z,4.65
2024-02-26T16:28:26.501Z,4.25
2024-02-26T16:30:55.272Z,3.80
2024-02-26T16:33:22.873Z,4.70
2024-02-26T16:35:49.765Z,3.35
2024-02-26T16:38:16.547Z,6.72
2024-02-26T16:40:43.392Z,4.85
2024-02-26T16:43:10.103Z,7.25
2024-02-26T16:45:36.975Z,7.40
2024-02-26T16:48:05.098Z,4.95
2024-02-26T16:50:31.900Z,2.85
2024-02-26T16:52:58.997Z,3.30
2024-02-26T16:57:57.242Z,3.80
2024-02-26T17:00:24.267Z,5.78
2024-02-26T17:02:51.745Z,4.75
2024-02-26T17:05:18.685Z,1.70
2024-02-26T17:07:47.012Z,2.60
2024-02-26T17:10:15.072Z,3.38
2024-02-26T17:12:42.061Z,1.70
2024-02-26T17:15:10.109Z,3.63
2024-02-26T17:17:37.161Z,4.10
2024-02-26T17:20:05.572Z,3.35
2024-02-26T17:22:32.444Z,8.43
2024-02-26T17:24:59.883Z,6.55
2024-02-26T17:27:27.093Z,4.93
2024-02-26T17:32:20.549Z,4.90
2024-02-26T17:34:49.449Z,10.05
2024-02-26T17:37:16.843Z,5.28
2024-02-26T17:42:10.285Z,5.38
2024-02-26T17:44:40.852Z,6.63
2024-02-26T17:47:08.145Z,5.70
2024-02-26T17:52:02.912Z,5.20
2024-02-26T17:54:30.233Z,6.93
2024-02-26T17:56:58.436Z,5.30
2024-02-26T17:59:25.574Z,6.85
2024-02-26T18:01:52.388Z,5.40
2024-02-26T18:04:19.141Z,4.18
2024-02-26T18:06:46.448Z,5.40
2024-02-26T18:09:15.306Z,5.68
2024-02-26T18:11:45.836Z,3.63
2024-02-26T18:14:12.597Z,6.97
2024-02-26T18:16:39.596Z,4.13
2024-02-26T18:19:06.526Z,4.18
2024-02-26T18:21:33.466Z,2.38
2024-02-26T18:24:00.582Z,3.92
2024-02-26T18:26:27.384Z,11.82
2024-02-26T18:28:54.092Z,14.07
2024-02-26T18:31:20.880Z,5.15
2024-02-26T18:33:47.884Z,7.78
2024-02-26T18:36:17.348Z,5.38
2024-02-26T18:38:44.480Z,9.13
2024-02-26T18:41:20.322Z,6.25
2024-02-26T18:43:48.625Z,6.60
2024-02-26T18:46:15.615Z,5.55
2024-02-26T18:48:43.858Z,3.10
2024-02-26T18:51:13.202Z,4.82
2024-02-26T18:53:41.573Z,9.48
2024-02-26T18:56:08.995Z,5.28
2024-02-26T18:58:36.034Z,8.77
2024-02-26T19:01:03.319Z,6.07
2024-02-26T19:03:33.365Z,6.55
2024-02-26T19:06:00.394Z,5.97
2024-02-26T19:08:27.603Z,6.63
2024-02-26T19:10:54.483Z,6.55
2024-02-26T19:13:21.257Z,3.33
2024-02-26T19:15:48.066Z,5.32
2024-02-26T19:18:14.960Z,4.20
2024-02-26T19:23:08.629Z,3.00
2024-02-26T19:25:35.344Z,4.88
2024-02-26T19:28:02.053Z,5.00
2024-02-26T19:30:29.368Z,7.40
2024-02-26T19:32:56.191Z,4.80
2024-02-26T19:35:22.982Z,3.60
2024-02-26T19:37:49.737Z,4.50
2024-02-26T19:40:16.657Z,3.13
2024-02-26T19:42:43.506Z,4.53
2024-02-26T19:45:13.040Z,4.18
2024-02-26T19:47:41.153Z,2.97
2024-02-26T19:50:09.353Z,4.28
2024-02-26T19:52:36.792Z,2.45
2024-02-26T19:55:04.495Z,3.42
2024-02-26T19:57:31.717Z,2.03
2024-02-26T20:02:25.746Z,3.10
2024-02-26T20:04:52.584Z,3.50
2024-02-26T20:07:21.496Z,3.35
2024-02-26T20:09:48.719Z,3.55
2024-02-26T20:14:44.619Z,4.18
2024-02-26T20:17:11.920Z,3.85
2024-02-26T20:19:38.705Z,20.63
2024-02-26T20:22:05.605Z,26.63
2024-02-26T20:24:32.338Z,16.67
2024-02-26T20:26:59.082Z,9.77
2024-02-26T20:29:25.833Z,6.88
2024-02-26T20:31:52.814Z,7.70
2024-02-26T20:34:19.818Z,9.30
2024-02-26T20:36:46.705Z,10.23
2024-02-26T20:39:13.461Z,11.05
2024-02-26T20:41:41.944Z,8.93
2024-02-26T20:44:08.812Z,5.07
2024-02-26T20:46:35.882Z,5.60
2024-02-26T20:49:03.627Z,6.80
2024-02-26T20:51:30.671Z,3.20
2024-02-26T20:53:58.433Z,7.20
2024-02-26T20:56:25.186Z,4.97
2024-02-26T20:58:51.952Z,4.40
2024-02-26T21:01:18.933Z,3.05
2024-02-26T21:03:45.789Z,3.10
2024-02-26T21:06:12.646Z,6.63
2024-02-26T21:08:39.371Z,7.25
2024-02-26T21:11:07.187Z,3.13
2024-02-26T21:13:35.768Z,5.15
2024-02-26T21:16:02.448Z,9.88
2024-02-26T21:18:29.432Z,5.70
2024-02-26T21:20:58.287Z,7.45
2024-02-26T21:23:25.910Z,5.20
2024-02-26T21:25:52.666Z,3.67
2024-02-26T21:28:19.405Z,4.50
2024-02-26T21:30:46.951Z,4.40
2024-02-26T21:33:14.409Z,4.95
2024-02-26T21:35:41.763Z,4.43
2024-02-26T21:40:37.253Z,3.75
2024-02-26T21:43:04.476Z,3.75
2024-02-26T21:47:58.337Z,6.43
2024-02-26T21:50:25.124Z,2.95
2024-02-26T21:52:51.790Z,5.95
2024-02-26T21:55:20.506Z,4.45
2024-02-26T21:57:47.512Z,4.25
2024-02-26T22:00:15.170Z,3.25
2024-02-26T22:02:42.543Z,7.38
2024-02-26T22:05:09.895Z,6.43
2024-02-26T22:10:04.938Z,5.10
2024-02-26T22:12:31.823Z,2.78
2024-02-26T22:14:58.713Z,3.05
2024-02-26T22:17:25.455Z,3.90
2024-02-26T22:19:52.282Z,2.83
2024-02-26T22:22:19.030Z,4.40
2024-02-26T22:24:45.749Z,2.97
2024-02-26T22:27:12.493Z,4.07
2024-02-26T22:29:39.272Z,2.67
2024-02-26T22:32:06.053Z,3.08
2024-02-26T22:34:32.875Z,4.32
2024-02-26T22:36:59.687Z,2.97
2024-02-26T22:39:26.675Z,6.05
2024-02-26T22:41:55.277Z,4.82
2024-02-26T22:44:22.003Z,4.32
2024-02-26T22:46:48.670Z,7.95
2024-02-26T22:49:15.416Z,6.30
2024-02-26T22:51:42.168Z,4.40
2024-02-26T22:54:08.943Z,3.28
2024-02-26T22:56:35.642Z,5.50
2024-02-26T22:59:05.759Z,4.60
2024-02-26T23:01:33.600Z,3.72
2024-02-26T23:04:00.552Z,4.78
2024-02-26T23:06:27.363Z,5.25
2024-02-26T23:08:54.107Z,3.55
2024-02-26T23:11:20.955Z,3.17
2024-02-26T23:13:48.212Z,5.05
2024-02-26T23:16:15.220Z,5.05
2024-02-26T23:18:42.465Z,8.07
2024-02-26T23:21:09.274Z,3.67
2024-02-26T23:23:36.516Z,4.47
2024-02-26T23:26:03.450Z,7.35
2024-02-26T23:28:30.302Z,4.78
2024-02-26T23:30:57.334Z,4.78
2024-02-26T23:33:24.207Z,3.30
2024-02-26T23:35:51.015Z,5.22
2024-02-26T23:38:17.701Z,3.50
2024-02-26T23:40:44.453Z,8.85
2024-02-26T23:43:12.309Z,6.57
2024-02-26T23:45:39.433Z,6.97
2024-02-26T23:48:06.824Z,5.07
2024-02-26T23:53:04.992Z,4.88
2024-02-26T23:55:33.101Z,3.42
2024-02-26T23:58:00.448Z,3.72
